Time;durP1;ratioP1;P1;durP2;ratioP2;P2;SDS_P1;SDS_P2;PMS_P1;PMS_P2;Temp;Humidity;BMP_temperature;BMP_pressure;BME280_temperature;BME280_humidity;BME280_pressure;Samples;Min_cycle;Max_cycle;Signal;HPM_P1;HPM_P2
2021/12/12 00:02:24;;;;;;;3.70;2.72;;;;;;;12.88;73.65;101401.72;5016813;28;103316;-50
2021/12/12 00:04:53;;;;;;;4.13;2.65;;;;;;;12.89;73.46;101399.81;5032808;28;102460;-48
2021/12/12 00:07:24;;;;;;;6.00;2.72;;;;;;;12.90;73.60;101406.91;5032350;28;102279;-49
2021/12/12 00:09:55;;;;;;;4.93;2.97;;;;;;;12.90;73.68;101412.38;5032080;27;104477;-50
2021/12/12 00:12:25;;;;;;;6.10;2.65;;;;;;;12.90;73.50;101417.81;5021495;27;102469;-49
2021/12/12 00:14:51;;;;;;;4.95;2.60;;;;;;;12.90;73.52;101420.56;5026734;28;102486;-48
2021/12/12 00:17:21;;;;;;;4.80;2.55;;;;;;;12.90;73.68;101412.38;5028897;27;102256;-48
2021/12/12 00:19:48;;;;;;;5.13;2.55;;;;;;;12.90;73.52;101404.16;5032324;27;103931;-49
2021/12/12 00:22:18;;;;;;;3.08;1.80;;;;;;;12.90;73.48;101404.97;5032409;28;102301;-49
2021/12/12 00:24:46;;;;;;;3.22;2.00;;;;;;;12.90;73.48;101409.63;5033694;28;102416;-49
2021/12/12 00:27:13;;;;;;;3.90;2.30;;;;;;;12.89;73.33;101399.81;5034685;28;102258;-48
2021/12/12 00:29:39;;;;;;;7.70;2.45;;;;;;;12.90;73.42;101393.25;5031797;27;103886;-48
2021/12/12 00:32:10;;;;;;;6.68;2.45;;;;;;;12.90;73.56;101393.25;5036610;28;102134;-49
2021/12/12 00:34:44;;;;;;;3.40;2.10;;;;;;;12.91;73.65;101403.06;5029647;28;101956;-49
2021/12/12 00:37:11;;;;;;;4.93;2.30;;;;;;;12.90;73.42;101409.63;5023632;27;106383;-48
2021/12/12 00:39:40;;;;;;;4.60;2.35;;;;;;;12.90;73.73;101398.69;5026213;27;104012;-49
2021/12/12 00:42:12;;;;;;;3.47;2.33;;;;;;;12.90;73.65;101413.19;5035997;28;102143;-48
2021/12/12 00:44:40;;;;;;;5.32;2.20;;;;;;;12.90;73.64;101404.16;5028910;28;101966;-48
2021/12/12 00:47:09;;;;;;;4.63;2.40;;;;;;;12.89;73.55;101392.41;5032118;27;103289;-48
2021/12/12 00:49:38;;;;;;;4.00;2.38;;;;;;;12.89;73.52;101403.34;5032739;27;103862;-48
2021/12/12 00:52:07;;;;;;;4.53;2.10;;;;;;;12.89;73.42;101395.16;5029990;28;102341;-49
2021/12/12 00:54:33;;;;;;;4.53;2.72;;;;;;;12.90;73.53;101387.78;5032539;27;102153;-48
2021/12/12 00:57:03;;;;;;;4.78;2.13;;;;;;;12.89;73.50;101386.13;5032279;28;102244;-48
2021/12/12 00:59:30;;;;;;;;;;;;;;;12.89;73.60;101391.59;5032034;27;104060;-48
2021/12/12 01:01:58;;;;;;;3.80;2.63;;;;;;;12.89;73.60;101386.13;5032775;28;102829;-48
2021/12/12 01:04:29;;;;;;;3.90;2.63;;;;;;;12.89;73.47;101395.16;5032994;28;102025;-48
2021/12/12 01:06:59;;;;;;;5.45;3.20;;;;;;;12.88;73.45;101387.25;5033194;27;102486;-48
2021/12/12 01:09:29;;;;;;;5.35;3.35;;;;;;;12.89;73.64;101391.59;5032328;28;108091;-47
2021/12/12 01:12:00;;;;;;;5.22;3.22;;;;;;;12.87;73.50;101393.78;5031713;28;102019;-48
2021/12/12 01:14:31;;;;;;;6.00;3.42;;;;;;;12.87;73.46;101405.50;5020259;28;102588;-47
2021/12/12 01:17:04;;;;;;;5.65;3.92;;;;;;;12.88;73.48;101418.09;5032259;27;102761;-49
2021/12/12 01:19:35;;;;;;;6.53;3.63;;;;;;;12.86;73.47;101398.41;5035631;27;103772;-47
2021/12/12 01:22:07;;;;;;;5.88;3.58;;;;;;;12.87;73.38;101410.16;5036434;27;102143;-49
2021/12/12 01:24:37;;;;;;;7.50;4.60;;;;;;;12.87;73.53;101399.22;5026999;28;102215;-48
2021/12/12 01:27:07;;;;;;;6.25;4.18;;;;;;;12.86;73.47;101403.06;5030264;27;102676;-48
2021/12/12 01:29:36;;;;;;;8.38;5.55;;;;;;;12.86;73.03;101403.06;5028953;27;103928;-49
2021/12/12 01:32:05;;;;;;;7.30;5.50;;;;;;;12.86;73.66;101392.13;5018191;28;102169;-49
2021/12/12 01:34:34;;;;;;;6.40;5.55;;;;;;;12.85;73.53;101377.66;5028070;28;102339;-49
2021/12/12 01:37:33;;;;;;;9.68;6.93;;;;;;;12.85;73.41;101382.31;5023845;28;104935;-49
2021/12/12 01:39:57;;;;;;;6.65;5.68;;;;;;;12.86;73.39;101392.13;5025499;27;103711;-48
2021/12/12 01:42:29;;;;;;;10.57;6.30;;;;;;;12.85;73.52;101385.03;5034989;28;105633;-48
2021/12/12 01:45:01;;;;;;;8.45;6.53;;;;;;;12.84;73.31;101389.69;5028608;28;102434;-48
2021/12/12 01:47:33;;;;;;;8.68;5.85;;;;;;;12.83;73.55;101387.22;5029381;27;102571;-48
2021/12/12 01:50:02;;;;;;;8.50;6.43;;;;;;;12.83;73.56;101388.03;5023950;27;103728;-48
2021/12/12 01:52:32;;;;;;;6.55;5.38;;;;;;;12.82;73.44;101380.94;5021393;28;102488;-49
2021/12/12 01:55:06;;;;;;;8.02;6.32;;;;;;;12.83;73.44;101387.22;5037150;28;102413;-49
2021/12/12 01:57:36;;;;;;;8.48;6.68;;;;;;;12.82;73.42;101385.59;5035362;27;102374;-48
2021/12/12 02:00:14;;;;;;;9.20;7.05;;;;;;;12.81;73.36;101384.75;5034790;28;104092;-48
2021/12/12 02:02:42;;;;;;;10.20;7.57;;;;;;;12.81;73.44;101378.47;5025997;28;102000;-49
2021/12/12 02:05:11;;;;;;;7.93;6.87;;;;;;;12.80;73.52;101377.63;5025621;28;105486;-49
2021/12/12 02:07:42;;;;;;;9.45;7.93;;;;;;;12.79;73.08;101369.72;5029591;28;102668;-49
2021/12/12 02:10:14;;;;;;;9.52;8.00;;;;;;;12.79;73.14;101367.00;5030007;28;104094;-49
2021/12/12 02:12:41;;;;;;;9.40;7.40;;;;;;;12.77;73.40;101361.00;5033012;28;102455;-48
2021/12/12 02:15:12;;;;;;;9.82;7.43;;;;;;;12.77;73.37;101356.34;5016635;28;102252;-49
2021/12/12 02:17:43;;;;;;;9.27;7.20;;;;;;;12.77;73.38;101371.94;5032416;28;103774;-49
2021/12/12 02:20:19;;;;;;;9.70;7.57;;;;;;;12.75;73.02;101370.25;5031948;27;103902;-48
2021/12/12 02:36:34;;;;;;;11.20;9.00;;;;;;;12.71;73.11;101330.94;4950100;27;102598;-48
2021/12/12 02:39:08;;;;;;;11.60;8.73;;;;;;;12.70;73.04;101342.94;5033708;27;102592;-48
2021/12/12 02:41:35;;;;;;;12.18;9.23;;;;;;;12.70;73.21;101333.94;5023006;28;103929;-48
2021/12/12 02:44:04;;;;;;;11.80;9.27;;;;;;;12.69;72.98;101333.13;5037253;28;102429;-49
2021/12/12 02:46:35;;;;;;;11.13;9.02;;;;;;;12.69;73.20;101335.00;5032224;27;102203;-48
2021/12/12 02:49:11;;;;;;;12.93;9.50;;;;;;;12.68;73.23;101342.38;5031334;27;102257;-49
2021/12/12 02:51:39;;;;;;;11.65;8.73;;;;;;;12.68;73.16;101336.13;5033890;28;103981;-49
2021/12/12 02:54:09;;;;;;;10.43;8.63;;;;;;;12.66;73.34;101339.13;5035302;28;102150;-49
2021/12/12 02:56:38;;;;;;;12.57;9.80;;;;;;;12.67;73.02;101339.94;5033287;27;102340;-49
2021/12/12 02:59:06;;;;;;;8.77;7.50;;;;;;;12.67;73.19;101351.69;5028928;27;102539;-49
2021/12/12 03:01:35;;;;;;;10.37;8.70;;;;;;;12.66;73.15;101355.50;5033450;28;104118;-48
2021/12/12 03:04:03;;;;;;;11.60;9.57;;;;;;;12.66;73.20;101350.06;5034769;28;102309;-48
2021/12/12 03:06:34;;;;;;;11.27;9.23;;;;;;;12.66;73.06;101365.63;5031250;27;102132;-48
2021/12/12 03:09:08;;;;;;;10.80;8.57;;;;;;;12.66;73.22;101360.97;5036053;28;102224;-48
2021/12/12 03:11:37;;;;;;;9.20;7.65;;;;;;;12.65;72.44;101375.69;5030628;28;104065;-50
2021/12/12 03:14:04;;;;;;;10.30;8.35;;;;;;;12.65;72.87;101375.69;5034257;28;102356;-48
2021/12/12 03:16:32;;;;;;;13.32;10.05;;;;;;;12.65;73.22;101381.16;5030920;27;102118;-48
2021/12/12 03:18:59;;;;;;;14.35;9.60;;;;;;;12.65;73.32;101385.81;5030593;27;102747;-49
2021/12/12 03:21:32;;;;;;;9.55;7.88;;;;;;;12.65;73.02;101383.88;5031565;28;103153;-49
2021/12/12 03:24:01;;;;;;;9.60;8.00;;;;;;;12.64;72.95;101378.72;5034968;28;102037;-48
2021/12/12 03:26:28;;;;;;;11.68;9.40;;;;;;;12.64;73.06;101368.59;5034351;27;102744;-48
2021/12/12 03:28:58;;;;;;;10.32;8.30;;;;;;;12.63;73.21;101369.69;5033239;28;102663;-48
2021/12/12 03:31:30;;;;;;;11.02;8.85;;;;;;;12.64;73.12;101376.78;5028524;28;103759;-50
2021/12/12 03:33:59;;;;;;;10.00;7.80;;;;;;;12.63;73.01;101366.97;5026243;28;102226;-48
2021/12/12 03:36:26;;;;;;;8.73;7.15;;;;;;;12.64;73.11;101379.53;5024945;27;102192;-49
2021/12/12 03:38:57;;;;;;;11.10;8.70;;;;;;;12.63;73.08;101372.44;5031785;27;102980;-49
2021/12/12 03:41:27;;;;;;;10.13;8.68;;;;;;;12.64;73.19;101385.00;5022393;28;103906;-49
2021/12/12 03:43:57;;;;;;;10.65;8.93;;;;;;;12.62;73.22;101368.06;5022431;28;102248;-48
2021/12/12 03:46:23;;;;;;;10.35;8.07;;;;;;;12.64;73.02;101381.44;5026266;27;102446;-48
2021/12/12 03:48:50;;;;;;;10.32;8.05;;;;;;;12.62;73.28;101387.19;5015229;27;102761;-49
2021/12/12 03:51:19;;;;;;;10.75;8.55;;;;;;;12.63;73.02;101379.81;5030286;28;103859;-49
2021/12/12 03:53:46;;;;;;;10.95;8.18;;;;;;;12.63;73.11;101388.00;5033108;28;102128;-49
2021/12/12 03:56:14;;;;;;;8.88;6.97;;;;;;;12.62;73.11;101381.72;5033642;27;102036;-49
2021/12/12 03:58:41;;;;;;;10.48;8.27;;;;;;;12.62;73.19;101381.72;5022712;27;102493;-48
2021/12/12 04:01:12;;;;;;;9.80;7.95;;;;;;;12.63;73.05;101393.47;5021849;28;104123;-48
2021/12/12 04:03:39;;;;;;;11.63;9.13;;;;;;;12.62;73.20;101380.88;5034130;28;103112;-48
2021/12/12 04:06:11;;;;;;;11.67;8.63;;;;;;;12.62;73.23;101386.34;5023552;27;102397;-48
2021/12/12 04:08:40;;;;;;;9.52;8.18;;;;;;;12.62;73.63;101395.38;5029695;27;102348;-48
2021/12/12 04:11:12;;;;;;;9.38;7.70;;;;;;;12.61;73.00;101401.91;5030511;28;103903;-48
2021/12/12 04:13:40;;;;;;;8.60;7.10;;;;;;;12.61;72.92;101407.38;5032752;28;102673;-48
2021/12/12 04:16:09;;;;;;;9.38;7.75;;;;;;;12.62;73.23;101409.03;5030378;27;102422;-48
2021/12/12 04:18:38;;;;;;;11.23;8.57;;;;;;;12.62;73.17;101409.03;5033084;28;102385;-48
2021/12/12 04:21:05;;;;;;;10.55;8.23;;;;;;;12.61;73.15;101407.38;5023759;28;104007;-49
2021/12/12 04:23:31;;;;;;;11.20;7.60;;;;;;;12.62;73.14;101410.91;5032321;27;102215;-48
2021/12/12 04:26:09;;;;;;;8.15;7.25;;;;;;;12.61;73.20;101412.81;5029546;28;102277;-49
2021/12/12 04:28:36;;;;;;;10.88;7.80;;;;;;;12.61;73.14;101415.56;5032904;27;102435;-48
2021/12/12 04:31:03;;;;;;;9.80;7.88;;;;;;;12.61;72.85;101407.38;5032387;28;103561;-49
2021/12/12 04:33:31;;;;;;;12.55;8.60;;;;;;;12.61;73.21;101417.47;5026872;28;102490;-48
2021/12/12 04:35:58;;;;;;;12.48;7.95;;;;;;;12.61;73.08;101407.38;5032021;27;102149;-48
2021/12/12 04:38:24;;;;;;;9.50;7.38;;;;;;;12.60;73.03;101413.91;5026661;28;103317;-48
2021/12/12 04:40:51;;;;;;;8.23;7.32;;;;;;;12.61;73.21;101418.28;5023081;27;104059;-49
2021/12/12 04:43:18;;;;;;;8.85;7.22;;;;;;;12.61;73.04;101418.28;5034007;28;102159;-48
2021/12/12 04:46:04;;;;;;;9.73;7.45;;;;;;;12.60;73.09;101427.56;5027341;27;102455;-48
2021/12/12 04:51:33;;;;;;;9.85;7.80;;;;;;;12.60;73.14;101421.28;5025145;27;103891;-49
2021/12/12 04:54:07;;;;;;;8.70;6.97;;;;;;;12.60;73.13;101432.22;5038139;28;102217;-49
2021/12/12 04:56:45;;;;;;;9.38;7.18;;;;;;;12.60;73.04;101433.03;5028543;27;102204;-49
2021/12/12 04:59:17;;;;;;;8.35;6.47;;;;;;;12.59;73.29;101434.13;5034984;28;102704;-48
2021/12/12 05:01:48;;;;;;;10.30;7.75;;;;;;;12.60;72.98;101432.22;5032736;27;104252;-49
2021/12/12 05:04:20;;;;;;;9.02;7.05;;;;;;;12.60;73.12;101435.78;5028680;28;102709;-48
2021/12/12 05:06:55;;;;;;;10.18;7.80;;;;;;;12.60;73.07;101433.03;5035081;27;102306;-48
2021/12/12 05:09:29;;;;;;;12.18;8.27;;;;;;;12.60;73.15;101427.56;5028072;28;102229;-49
2021/12/12 05:12:00;;;;;;;11.38;8.23;;;;;;;12.60;73.10;101416.66;5026718;28;102790;-49
2021/12/12 05:14:33;;;;;;;8.30;6.60;;;;;;;12.60;73.19;101422.13;5036177;28;102235;-48
2021/12/12 05:17:06;;;;;;;9.27;7.25;;;;;;;12.60;73.15;101416.66;5034035;27;102139;-48
2021/12/12 05:19:35;;;;;;;14.45;8.45;;;;;;;12.61;73.24;101407.38;5036674;28;102288;-48
2021/12/12 05:22:07;;;;;;;9.07;7.90;;;;;;;12.60;73.35;101411.19;5028381;27;103745;-48
2021/12/12 05:24:37;;;;;;;11.00;8.75;;;;;;;12.59;73.11;101415.03;5019381;28;102284;-49
2021/12/12 05:27:06;;;;;;;9.57;7.45;;;;;;;12.58;73.03;101416.09;5036042;27;102122;-49
2021/12/12 05:29:38;;;;;;;12.60;7.75;;;;;;;12.60;73.08;101422.13;5037524;28;102471;-48
2021/12/12 05:32:08;;;;;;;12.50;7.90;;;;;;;12.60;72.94;101427.56;5030952;27;104687;-48
2021/12/12 05:34:40;;;;;;;11.30;9.40;;;;;;;12.60;73.25;101433.03;5031922;28;102275;-50
2021/12/12 05:37:10;;;;;;;10.30;8.68;;;;;;;12.60;73.26;101438.50;5033067;27;102304;-49
2021/12/12 05:39:37;;;;;;;11.43;8.80;;;;;;;12.61;72.83;101440.13;5037779;27;102386;-49
2021/12/12 05:42:05;;;;;;;9.43;7.88;;;;;;;12.60;73.17;101443.97;5027098;28;104005;-48
2021/12/12 05:44:33;;;;;;;9.80;8.77;;;;;;;12.60;73.06;101443.13;5032408;28;102244;-50
2021/12/12 05:47:02;;;;;;;11.13;8.68;;;;;;;12.59;73.13;101442.31;5030286;27;102265;-48
2021/12/12 05:49:29;;;;;;;10.45;8.52;;;;;;;12.61;73.21;101433.84;5031493;27;102212;-49
2021/12/12 05:51:57;;;;;;;12.27;9.48;;;;;;;12.60;73.19;101433.03;5033453;28;103690;-48
2021/12/12 05:54:24;;;;;;;10.07;8.30;;;;;;;12.60;73.26;101430.31;5033535;28;102660;-49
2021/12/12 05:56:52;;;;;;;12.23;9.05;;;;;;;12.60;72.98;101430.31;5035773;28;102576;-49
2021/12/12 05:59:20;;;;;;;10.10;8.23;;;;;;;12.59;73.19;101431.41;5036437;27;102164;-48
2021/12/12 06:01:47;;;;;;;10.63;8.23;;;;;;;12.59;73.12;101425.94;5030661;28;103944;-49
2021/12/12 06:04:16;;;;;;;11.93;7.85;;;;;;;12.59;73.03;101420.47;5030093;28;102218;-49
2021/12/12 06:06:44;;;;;;;13.00;9.73;;;;;;;12.60;72.99;101422.13;5021502;28;102557;-49
2021/12/12 06:09:13;;;;;;;12.47;9.80;;;;;;;12.58;73.01;101418.81;5034332;28;102339;-48
2021/12/12 06:11:43;;;;;;;9.35;7.93;;;;;;;12.59;72.96;101431.41;5035134;27;103142;-48
2021/12/12 06:14:11;;;;;;;16.90;9.77;;;;;;;12.59;73.04;101425.94;5033507;27;102285;-48
2021/12/12 06:16:38;;;;;;;13.13;10.02;;;;;;;12.58;73.15;101424.28;5036561;28;102136;-48
2021/12/12 06:19:10;;;;;;;11.98;9.65;;;;;;;12.57;73.06;101417.19;5032811;28;102481;-48
2021/12/12 06:21:38;;;;;;;14.93;8.95;;;;;;;12.58;72.86;101416.09;5032394;27;103923;-48
2021/12/12 06:24:04;;;;;;;29.85;17.77;;;;;;;12.58;73.06;101418.81;5033278;28;103180;-48
2021/12/12 06:26:33;;;;;;;15.27;10.07;;;;;;;12.58;72.95;101420.72;5026365;28;102581;-49
2021/12/12 06:28:59;;;;;;;13.95;10.20;;;;;;;12.56;72.90;101410.09;5032757;28;102338;-48
2021/12/12 06:31:26;;;;;;;11.98;8.48;;;;;;;12.57;73.04;101425.38;5034112;27;103960;-49
2021/12/12 06:33:55;;;;;;;12.85;9.45;;;;;;;12.56;72.78;101426.47;5025699;27;102249;-48
2021/12/12 06:36:22;;;;;;;12.17;9.37;;;;;;;12.56;72.96;101433.84;5032608;28;102209;-48
2021/12/12 06:38:51;;;;;;;12.93;9.90;;;;;;;12.55;72.66;101443.94;5029296;27;102225;-49
2021/12/12 06:41:19;;;;;;;11.73;9.30;;;;;;;12.54;72.87;101450.47;5029236;28;104152;-48
2021/12/12 06:43:56;;;;;;;12.52;9.60;;;;;;;12.54;72.84;101450.47;5033340;27;102385;-48
2021/12/12 06:46:23;;;;;;;9.77;8.18;;;;;;;12.54;72.97;101446.94;5017568;28;102209;-48
2021/12/12 06:48:50;;;;;;;10.60;8.27;;;;;;;12.53;72.76;101451.56;5028457;27;102335;-48
2021/12/12 06:51:18;;;;;;;11.43;8.50;;;;;;;12.54;72.76;101450.47;5030830;27;103892;-48
2021/12/12 06:53:46;;;;;;;12.75;8.38;;;;;;;12.53;72.73;101443.38;5028754;27;102172;-48
2021/12/12 06:56:16;;;;;;;10.23;7.68;;;;;;;12.54;72.91;101450.47;5032644;28;102089;-48
2021/12/12 06:58:43;;;;;;;10.75;8.82;;;;;;;12.53;73.05;101445.28;5033609;28;102400;-48
2021/12/12 07:01:16;;;;;;;12.27;8.60;;;;;;;12.53;72.63;101442.56;5032982;27;103973;-48
2021/12/12 07:03:44;;;;;;;11.85;8.45;;;;;;;12.53;72.99;101453.50;5031160;27;102371;-49
2021/12/12 07:06:11;;;;;;;10.35;7.68;;;;;;;12.52;72.64;101435.47;5028103;27;102607;-48
2021/12/12 07:08:37;;;;;;;13.27;8.70;;;;;;;12.53;72.86;101431.66;5029312;28;102194;-48
2021/12/12 07:11:05;;;;;;;10.45;8.10;;;;;;;12.51;72.89;101407.31;5032026;28;103756;-48
2021/12/12 07:13:32;;;;;;;12.63;8.52;;;;;;;12.51;72.82;101390.94;5023902;27;102076;-48
2021/12/12 07:16:01;;;;;;;11.50;8.13;;;;;;;12.52;73.07;101386.31;5025425;27;102220;-48
2021/12/12 07:18:33;;;;;;;12.27;8.68;;;;;;;12.51;72.82;101380.03;5029182;28;102615;-49
2021/12/12 07:21:03;;;;;;;9.65;7.63;;;;;;;12.51;72.79;101380.03;5029580;28;104105;-49
2021/12/12 07:23:31;;;;;;;11.55;8.93;;;;;;;12.50;72.73;101373.75;5034220;28;102257;-48
2021/12/12 07:25:59;;;;;;;11.15;7.90;;;;;;;12.50;72.56;101378.38;5024373;27;102137;-49
2021/12/12 07:28:27;;;;;;;7.88;5.88;;;;;;;12.49;72.70;101383.03;5024825;27;102433;-48
2021/12/12 07:30:57;;;;;;;8.95;6.93;;;;;;;12.50;72.72;101405.69;5025319;28;104095;-48
2021/12/12 07:33:24;;;;;;;10.38;7.72;;;;;;;12.50;72.74;101416.59;5023541;28;102591;-48
2021/12/12 07:35:57;;;;;;;11.68;7.82;;;;;;;12.50;72.72;101428.34;5026441;27;102188;-49
2021/12/12 07:38:24;;;;;;;10.77;7.82;;;;;;;12.51;72.92;101448.28;5019653;28;102862;-49
2021/12/12 07:40:51;;;;;;;9.80;7.57;;;;;;;12.50;72.90;101430.25;5019957;28;103914;-48
2021/12/12 07:43:17;;;;;;;7.60;6.07;;;;;;;12.51;72.83;101431.91;5019443;27;102384;-49
2021/12/12 07:45:44;;;;;;;8.20;6.13;;;;;;;12.50;72.69;101405.69;5028083;28;102556;-48
2021/12/12 07:48:12;;;;;;;8.68;7.13;;;;;;;12.50;72.80;101386.56;5019168;27;102749;-48
2021/12/12 07:50:39;;;;;;;11.35;7.65;;;;;;;12.49;72.75;101365.84;5025436;27;106841;-50
2021/12/12 07:53:07;;;;;;;9.82;7.22;;;;;;;12.48;72.91;101386.03;5034486;27;102136;-48
2021/12/12 07:55:34;;;;;;;7.45;6.20;;;;;;;12.48;72.70;101396.97;5033597;27;102791;-48
2021/12/12 07:58:07;;;;;;;8.85;7.45;;;;;;;12.47;72.84;101398.84;5031434;28;102128;-48
2021/12/12 08:00:34;;;;;;;8.00;6.27;;;;;;;12.50;72.79;101419.34;5022759;27;104247;-48
2021/12/12 08:03:01;;;;;;;8.80;6.30;;;;;;;12.48;72.79;101396.97;5024795;28;102143;-48
2021/12/12 08:05:30;;;;;;;7.68;6.60;;;;;;;12.50;72.82;101405.69;5024501;28;102259;-49
2021/12/12 08:07:57;;;;;;;7.63;6.03;;;;;;;12.50;72.82;101394.78;5032970;27;102179;-48
2021/12/12 08:10:26;;;;;;;8.32;6.80;;;;;;;12.49;72.48;101396.69;5025241;27;103331;-49
2021/12/12 08:13:00;;;;;;;6.45;5.00;;;;;;;12.49;72.84;101393.13;5024086;27;103276;-49
2021/12/12 08:15:29;;;;;;;8.88;6.47;;;;;;;12.50;72.96;101392.03;5011136;28;102471;-49
2021/12/12 08:17:57;;;;;;;8.38;6.85;;;;;;;12.49;72.73;101401.31;5033198;28;102739;-48
2021/12/12 08:20:26;;;;;;;8.45;6.57;;;;;;;12.49;72.82;101382.22;5026563;28;104336;-49
2021/12/12 08:22:53;;;;;;;6.90;5.47;;;;;;;12.48;72.73;101386.03;5023930;27;102692;-48
2021/12/12 08:25:21;;;;;;;246.13;41.28;;;;;;;12.48;72.77;101383.31;5024695;27;102125;-48
2021/12/12 08:27:52;;;;;;;6.15;5.32;;;;;;;12.49;72.97;101379.47;5020574;28;102425;-48
2021/12/12 08:30:19;;;;;;;7.18;5.95;;;;;;;12.48;72.87;101386.03;5028817;28;103857;-48
2021/12/12 08:32:48;;;;;;;6.68;5.75;;;;;;;12.48;72.57;101386.84;5033143;28;102368;-49
2021/12/12 08:35:17;;;;;;;7.15;6.00;;;;;;;12.48;72.71;101391.50;5023880;28;102368;-48
2021/12/12 08:37:44;;;;;;;8.95;5.78;;;;;;;12.48;72.78;101380.59;5016603;28;102135;-49
2021/12/12 08:40:14;;;;;;;14.45;6.72;;;;;;;12.49;72.70;101384.94;5016885;28;104007;-48
2021/12/12 08:42:41;;;;;;;5.88;5.07;;;;;;;12.48;72.66;101375.13;5026854;28;102536;-49
2021/12/12 08:45:12;;;;;;;8.02;5.40;;;;;;;12.48;72.87;101366.94;5024631;27;102139;-48
2021/12/12 08:47:39;;;;;;;505.63;147.60;;;;;;;12.48;72.66;101377.84;5012942;27;104074;-48
2021/12/12 08:50:09;;;;;;;56.65;15.23;;;;;;;12.47;72.53;101379.72;5014247;27;104087;-48
2021/12/12 08:52:39;;;;;;;7.28;5.82;;;;;;;12.48;72.64;101377.84;5012847;27;102574;-49
2021/12/12 08:55:14;;;;;;;11.63;7.38;;;;;;;12.47;72.78;101373.47;5015387;28;102386;-48
2021/12/12 08:58:14;;;;;;;6.35;5.63;;;;;;;12.47;72.73;101368.00;5032330;28;102445;-49
2021/12/12 09:00:47;;;;;;;8.85;6.75;;;;;;;12.46;72.99;101363.63;5018856;28;103674;-48
2021/12/12 09:03:16;;;;;;;9.18;6.70;;;;;;;12.46;72.69;101352.72;5030892;28;102359;-48
2021/12/12 09:05:44;;;;;;;8.90;6.75;;;;;;;12.45;72.83;101353.81;5027784;27;103824;-49
2021/12/12 09:08:14;;;;;;;5.13;4.63;;;;;;;12.46;72.63;101355.44;5012892;27;103709;-48
2021/12/12 09:10:45;;;;;;;8.00;6.05;;;;;;;12.45;72.54;101360.09;5013811;27;104256;-48
2021/12/12 09:13:17;;;;;;;9.05;6.60;;;;;;;12.45;72.58;101365.56;5013842;27;102880;-48
2021/12/12 09:15:49;;;;;;;7.50;6.28;;;;;;;12.45;72.87;101372.94;5027489;27;102898;-48
2021/12/12 09:18:22;;;;;;;93.45;11.90;;;;;;;12.39;71.99;101361.16;5019955;27;102444;-49
2021/12/12 09:20:55;;;;;;;32.95;9.10;;;;;;;12.31;71.69;101369.03;5030956;27;103902;-48
2021/12/12 09:23:25;;;;;;;14.27;9.02;;;;;;;12.25;71.49;101376.38;5027936;27;102017;-49
2021/12/12 09:25:57;;;;;;;14.73;9.00;;;;;;;12.21;70.95;101395.19;5023758;27;102201;-47
2021/12/12 09:28:30;;;;;;;17.13;9.10;;;;;;;12.19;71.15;101378.28;5023943;28;102205;-48
2021/12/12 09:31:03;;;;;;;15.00;9.18;;;;;;;12.17;71.11;101380.44;5030398;27;103940;-49
2021/12/12 09:33:34;;;;;;;23.38;10.25;;;;;;;12.11;70.28;101414.22;5028513;27;102281;-49
2021/12/12 09:36:05;;;;;;;15.93;9.90;;;;;;;12.03;70.43;101401.09;5023103;28;102144;-50
2021/12/12 09:38:38;;;;;;;14.35;8.77;;;;;;;12.02;70.34;101380.38;5032622;27;102154;-49
2021/12/12 09:41:23;;;;;;;13.48;9.25;;;;;;;12.02;70.31;101399.47;5035133;27;104042;-49
2021/12/12 09:44:13;;;;;;;13.30;9.05;;;;;;;12.00;69.99;101401.63;5019593;27;102363;-50
2021/12/12 09:47:36;;;;;;;14.43;9.18;;;;;;;11.99;70.37;101409.00;5027352;27;102037;-49
2021/12/12 09:53:30;;;;;;;13.48;9.00;;;;;;;11.94;70.47;101424.53;5029511;27;103957;-49
2021/12/12 09:56:03;;;;;;;17.25;8.75;;;;;;;11.92;70.02;101410.31;5009320;27;102074;-50
2021/12/12 09:58:42;;;;;;;11.93;8.57;;;;;;;11.88;70.32;101406.47;5028755;27;102486;-49
2021/12/12 10:01:13;;;;;;;17.85;9.50;;;;;;;11.87;70.50;101407.56;5037107;27;103582;-48
2021/12/12 10:03:54;;;;;;;13.95;9.05;;;;;;;11.88;70.64;101404.56;5021419;27;103952;-48
2021/12/12 10:06:29;;;;;;;11.60;7.93;;;;;;;11.90;70.79;101396.94;5030246;27;102442;-49
2021/12/12 10:09:03;;;;;;;8.70;6.47;;;;;;;11.91;70.80;101400.50;5026232;28;102376;-48
2021/12/12 10:11:39;;;;;;;11.40;7.70;;;;;;;11.92;70.87;101389.31;5029353;27;102642;-48
2021/12/12 10:14:13;;;;;;;11.02;7.70;;;;;;;11.94;71.03;101387.16;5025289;27;106155;-49
2021/12/12 10:16:47;;;;;;;12.18;8.10;;;;;;;11.94;71.13;101381.69;5022058;27;102310;-48
2021/12/12 10:19:35;;;;;;;11.55;8.27;;;;;;;11.95;71.10;101383.34;5025816;27;102388;-49
2021/12/12 10:22:13;;;;;;;11.43;7.57;;;;;;;11.96;71.10;101395.06;5030529;28;102519;-50
2021/12/12 10:24:47;;;;;;;10.95;7.45;;;;;;;11.97;71.19;101393.97;5030302;28;104078;-48
2021/12/12 10:27:17;;;;;;;9.93;7.45;;;;;;;11.97;71.23;101396.69;5031745;28;102297;-49
2021/12/12 10:29:56;;;;;;;9.10;7.13;;;;;;;11.99;71.26;101395.34;5027053;28;102583;-49
2021/12/12 10:32:32;;;;;;;11.45;8.27;;;;;;;11.99;71.48;101380.91;5032149;28;102520;-49
2021/12/12 10:35:03;;;;;;;12.70;7.68;;;;;;;12.01;71.51;101384.19;5032042;27;107953;-48
2021/12/12 10:37:34;;;;;;;9.43;7.05;;;;;;;12.01;71.35;101376.81;5018375;27;102263;-49
2021/12/12 10:40:05;;;;;;;7.60;5.93;;;;;;;12.03;71.58;101379.28;5032755;27;102614;-49
2021/12/12 10:42:43;;;;;;;9.60;6.85;;;;;;;12.02;71.44;101378.47;5025965;27;102754;-49
2021/12/12 10:45:15;;;;;;;9.95;7.45;;;;;;;12.03;71.53;101371.91;5036483;28;103967;-49
2021/12/12 10:47:54;;;;;;;8.57;7.07;;;;;;;12.04;71.53;101361.81;5035139;27;102545;-49
2021/12/12 10:50:29;;;;;;;9.38;6.68;;;;;;;12.05;71.54;101360.75;5036254;27;102004;-49
2021/12/12 10:53:06;;;;;;;9.40;7.20;;;;;;;12.06;71.62;101359.66;5034640;28;102137;-49
2021/12/12 10:55:36;;;;;;;8.82;6.90;;;;;;;12.07;71.53;101369.47;5027961;27;103882;-49
2021/12/12 10:58:09;;;;;;;9.30;6.78;;;;;;;12.07;71.54;101352.28;5030106;27;102373;-48
2021/12/12 11:00:39;;;;;;;9.27;6.63;;;;;;;12.07;71.54;101358.56;5024849;27;102645;-48
2021/12/12 11:03:09;;;;;;;10.00;5.90;;;;;;;12.08;71.60;101362.97;5025960;27;102355;-50
2021/12/12 11:05:40;;;;;;;10.05;6.78;;;;;;;12.10;71.72;101368.13;5010950;28;103852;-49
2021/12/12 11:08:11;;;;;;;7.43;6.35;;;;;;;12.10;71.60;101374.41;5027553;27;102003;-49
2021/12/12 11:10:40;;;;;;;11.02;7.35;;;;;;;12.11;71.74;101375.22;5032687;28;102369;-49
2021/12/12 11:13:10;;;;;;;9.32;7.25;;;;;;;12.11;71.87;101367.84;5033848;27;102520;-49
2021/12/12 11:15:42;;;;;;;9.10;6.72;;;;;;;12.12;71.75;101383.16;5033582;28;103901;-49
2021/12/12 11:18:13;;;;;;;9.18;6.93;;;;;;;12.12;71.65;101366.78;5020672;27;102311;-49
2021/12/12 11:20:44;;;;;;;7.68;5.78;;;;;;;12.13;71.77;101357.50;5028021;27;102884;-48
2021/12/12 11:23:19;;;;;;;9.25;5.90;;;;;;;12.13;71.63;101360.25;5029809;27;102528;-48
2021/12/12 11:25:49;;;;;;;10.05;6.70;;;;;;;12.15;71.70;101357.22;5032148;27;108065;-47
2021/12/12 11:28:21;;;;;;;8.90;7.05;;;;;;;12.15;71.79;101359.97;5027462;28;102650;-48
2021/12/12 11:30:54;;;;;;;9.05;6.97;;;;;;;12.16;71.63;101340.59;5029653;27;103346;-49
2021/12/12 11:33:23;;;;;;;8.60;7.18;;;;;;;12.16;71.86;101339.78;5034059;27;103167;-49
2021/12/12 11:35:55;;;;;;;9.50;7.22;;;;;;;12.17;71.71;101336.78;5031037;27;104367;-49
2021/12/12 11:38:33;;;;;;;10.60;7.30;;;;;;;12.18;71.85;101343.06;5026310;27;102092;-49
2021/12/12 11:41:06;;;;;;;370.92;40.97;;;;;;;12.19;71.87;101329.16;5027809;28;102172;-49
2021/12/12 11:43:37;;;;;;;9.02;6.78;;;;;;;12.19;72.02;101323.72;5028202;27;102309;-49
2021/12/12 11:46:10;;;;;;;7.75;6.72;;;;;;;12.20;71.87;101324.53;5031254;28;103933;-49
2021/12/12 11:48:48;;;;;;;10.25;7.32;;;;;;;12.21;72.03;101331.63;5017753;28;103715;-49
2021/12/12 11:51:22;;;;;;;7.88;6.75;;;;;;;12.21;71.79;101326.97;5025414;27;102673;-48